createdAt,value
2022-11-13T00:00:52.137Z,7.43
2022-11-13T00:03:18.594Z,6.93
2022-11-13T00:05:45.021Z,7.70
2022-11-13T00:08:11.433Z,7.40
2022-11-13T00:10:38.665Z,7.90
2022-11-13T00:13:05.030Z,7.72
2022-11-13T00:15:31.442Z,7.15
2022-11-13T00:18:01.373Z,7.70
2022-11-13T00:20:27.735Z,7.95
2022-11-13T00:22:54.385Z,8.00
2022-11-13T00:25:20.689Z,8.10
2022-11-13T00:27:46.995Z,8.00
2022-11-13T00:30:18.914Z,9.00
2022-11-13T00:32:45.688Z,8.63
2022-11-13T00:35:12.084Z,8.20
2022-11-13T00:37:38.568Z,9.50
2022-11-13T00:40:05.436Z,7.90
2022-11-13T00:42:31.849Z,7.97
2022-11-13T00:44:58.143Z,6.97
2022-11-13T00:47:24.441Z,7.97
2022-11-13T00:49:50.747Z,8.15
2022-11-13T00:52:17.140Z,8.05
2022-11-13T00:54:43.443Z,9.02
2022-11-13T00:57:09.737Z,8.98
2022-11-13T00:59:36.058Z,8.65
2022-11-13T01:02:02.386Z,8.75
2022-11-13T01:04:29.154Z,8.48
2022-11-13T01:06:55.586Z,8.15
2022-11-13T01:09:21.943Z,8.57
2022-11-13T01:11:48.292Z,8.32
2022-11-13T01:14:14.665Z,8.80
2022-11-13T01:16:40.996Z,8.52
2022-11-13T01:19:07.788Z,8.85
2022-11-13T01:21:34.099Z,8.95
2022-11-13T01:24:01.053Z,9.00
2022-11-13T01:26:29.281Z,8.60
2022-11-13T01:28:57.605Z,8.38
2022-11-13T01:31:26.353Z,8.43
2022-11-13T01:33:52.919Z,8.35
2022-11-13T01:36:23.233Z,8.63
2022-11-13T01:38:50.522Z,9.10
2022-11-13T01:41:29.750Z,8.43
2022-11-13T01:43:57.505Z,8.95
2022-11-13T01:46:39.830Z,8.52
2022-11-13T01:49:09.162Z,8.38
2022-11-13T01:51:48.456Z,8.57
2022-11-13T01:54:20.289Z,8.65
2022-11-13T01:56:48.424Z,8.73
2022-11-13T01:59:21.521Z,8.38
2022-11-13T02:01:47.997Z,8.63
2022-11-13T02:04:14.751Z,8.57
2022-11-13T02:06:48.200Z,7.95
2022-11-13T02:09:16.236Z,8.25
2022-11-13T02:11:42.610Z,9.00
2022-11-13T02:14:10.669Z,8.43
2022-11-13T02:16:37.993Z,8.48
2022-11-13T02:19:12.345Z,8.63
2022-11-13T02:21:52.873Z,9.07
2022-11-13T02:24:37.825Z,8.43
2022-11-13T02:27:10.745Z,7.90
2022-11-13T02:29:37.048Z,8.75
2022-11-13T02:32:03.370Z,8.88
2022-11-13T02:34:29.691Z,8.48
2022-11-13T02:36:56.034Z,8.40
2022-11-13T02:39:22.342Z,8.57
2022-11-13T02:41:48.680Z,8.38
2022-11-13T02:44:14.959Z,8.23
2022-11-13T02:46:41.296Z,8.45
2022-11-13T02:49:07.646Z,8.70
2022-11-13T02:51:33.924Z,8.38
2022-11-13T02:54:00.232Z,8.43
2022-11-13T02:56:26.546Z,8.43
2022-11-13T02:58:52.832Z,7.93
2022-11-13T03:01:19.217Z,8.18
2022-11-13T03:03:57.565Z,7.80
2022-11-13T03:06:24.561Z,7.00
2022-11-13T03:08:50.886Z,8.20
2022-11-13T03:11:17.229Z,7.57
2022-11-13T03:13:43.508Z,7.15
2022-11-13T03:16:12.714Z,7.80
2022-11-13T03:18:39.470Z,7.07
2022-11-13T03:21:08.307Z,7.40
2022-11-13T03:23:34.670Z,7.25
2022-11-13T03:26:09.694Z,6.95
2022-11-13T03:28:36.931Z,7.25
2022-11-13T03:31:04.320Z,6.82
2022-11-13T03:33:31.241Z,7.82
2022-11-13T03:35:57.783Z,7.40
2022-11-13T03:38:24.620Z,7.32
2022-11-13T03:40:51.067Z,7.22
2022-11-13T03:43:18.339Z,7.28
2022-11-13T03:45:46.598Z,8.55
2022-11-13T03:48:14.747Z,8.23
2022-11-13T03:50:47.956Z,8.07
2022-11-13T03:53:14.974Z,7.88
2022-11-13T03:55:42.948Z,7.70
2022-11-13T03:58:10.075Z,7.65
2022-11-13T04:00:37.652Z,8.02
2022-11-13T04:03:04.113Z,8.25
2022-11-13T04:05:30.522Z,7.85
2022-11-13T04:07:56.896Z,8.40
2022-11-13T04:10:23.721Z,7.88
2022-11-13T04:12:50.013Z,8.05
2022-11-13T04:15:16.565Z,8.18
2022-11-13T04:17:43.369Z,8.98
2022-11-13T04:20:10.826Z,8.57
2022-11-13T04:22:37.234Z,8.13
2022-11-13T04:25:04.678Z,8.52
2022-11-13T04:27:31.111Z,8.48
2022-11-13T04:29:57.434Z,7.57
2022-11-13T04:32:23.802Z,8.30
2022-11-13T04:34:50.077Z,6.97
2022-11-13T04:37:16.440Z,5.70
2022-11-13T04:39:42.731Z,3.60
2022-11-13T04:42:29.647Z,3.28
2022-11-13T04:44:56.330Z,3.20
2022-11-13T04:47:22.700Z,3.38
2022-11-13T04:49:49.084Z,3.30
2022-11-13T04:52:15.464Z,3.25
2022-11-13T04:54:41.777Z,2.85
2022-11-13T04:57:08.144Z,3.40
2022-11-13T04:59:34.496Z,4.05
2022-11-13T05:02:00.953Z,3.33
2022-11-13T05:04:27.290Z,3.38
2022-11-13T05:06:53.674Z,4.00
2022-11-13T05:09:20.093Z,3.40
2022-11-13T05:11:46.602Z,3.58
2022-11-13T05:14:14.274Z,3.75
2022-11-13T05:16:40.611Z,3.03
2022-11-13T05:19:07.021Z,3.38
2022-11-13T05:21:38.723Z,3.50
2022-11-13T05:24:05.714Z,3.38
2022-11-13T05:26:32.209Z,3.80
2022-11-13T05:28:59.741Z,3.00
2022-11-13T05:31:26.458Z,3.25
2022-11-13T05:33:53.729Z,3.55
2022-11-13T05:36:21.154Z,2.25
2022-11-13T05:38:47.812Z,4.07
2022-11-13T05:41:20.466Z,3.97
2022-11-13T05:43:47.010Z,3.20
2022-11-13T05:46:15.186Z,4.40
2022-11-13T05:48:42.497Z,3.13
2022-11-13T05:51:20.541Z,4.60
2022-11-13T05:53:47.183Z,4.55
2022-11-13T05:56:23.316Z,4.72
2022-11-13T05:58:51.016Z,5.40
2022-11-13T06:01:32.445Z,4.88
2022-11-13T06:04:00.555Z,4.57
2022-11-13T06:06:28.748Z,4.82
2022-11-13T06:08:56.565Z,4.80
2022-11-13T06:11:25.727Z,4.53
2022-11-13T06:13:53.808Z,4.45
2022-11-13T06:16:26.338Z,5.10
2022-11-13T06:18:58.054Z,4.95
2022-11-13T06:21:26.991Z,4.60
2022-11-13T06:23:53.751Z,4.13
2022-11-13T06:26:27.007Z,3.08
2022-11-13T06:28:53.587Z,5.45
2022-11-13T06:31:25.798Z,4.57
2022-11-13T06:33:52.280Z,4.82
2022-11-13T06:36:27.134Z,5.65
2022-11-13T06:38:53.525Z,5.13
2022-11-13T06:41:22.662Z,5.30
2022-11-13T06:43:49.799Z,5.43
2022-11-13T06:46:19.183Z,5.10
2022-11-13T06:48:45.850Z,5.53
2022-11-13T06:51:15.629Z,5.30
2022-11-13T06:53:42.467Z,5.50
2022-11-13T06:56:09.570Z,5.40
2022-11-13T06:58:35.905Z,6.05
2022-11-13T07:01:20.001Z,6.28
2022-11-13T07:03:46.903Z,7.00
2022-11-13T07:06:16.102Z,6.47
2022-11-13T07:08:43.364Z,6.70
2022-11-13T07:11:12.165Z,6.68
2022-11-13T07:13:38.918Z,6.68
2022-11-13T07:16:16.413Z,7.15
2022-11-13T07:18:44.555Z,8.00
2022-11-13T07:21:12.559Z,7.10
2022-11-13T07:23:43.311Z,7.25
2022-11-13T07:26:11.171Z,7.00
2022-11-13T07:28:38.517Z,6.82
2022-11-13T07:31:05.857Z,6.85
2022-11-13T07:33:32.431Z,7.40
2022-11-13T07:36:00.120Z,7.35
2022-11-13T07:38:26.749Z,6.90
2022-11-13T07:40:53.454Z,7.45
2022-11-13T07:43:19.789Z,7.22
2022-11-13T07:45:46.204Z,7.00
2022-11-13T07:48:12.754Z,6.78
2022-11-13T07:50:39.456Z,7.22
2022-11-13T07:53:08.275Z,7.18
2022-11-13T07:55:35.459Z,6.97
2022-11-13T07:58:02.789Z,7.30
2022-11-13T08:00:31.058Z,6.68
2022-11-13T08:02:57.411Z,7.40
2022-11-13T08:05:23.776Z,7.47
2022-11-13T08:07:51.722Z,8.20
2022-11-13T08:10:20.098Z,8.40
2022-11-13T08:12:47.186Z,8.10
2022-11-13T08:15:14.052Z,8.25
2022-11-13T08:17:40.415Z,8.10
2022-11-13T08:20:07.601Z,7.85
2022-11-13T08:22:34.362Z,8.32
2022-11-13T08:25:00.838Z,6.78
2022-11-13T08:27:27.167Z,8.45
2022-11-13T08:29:53.475Z,8.60
2022-11-13T08:32:19.859Z,8.15
2022-11-13T08:34:46.180Z,7.47
2022-11-13T08:37:12.486Z,7.88
2022-11-13T08:39:38.800Z,7.75
2022-11-13T08:42:05.534Z,7.95
2022-11-13T08:44:31.860Z,8.32
2022-11-13T08:46:58.392Z,8.57
2022-11-13T08:49:24.736Z,7.50
2022-11-13T08:51:51.019Z,8.43
2022-11-13T08:54:17.656Z,8.70
2022-11-13T08:56:43.936Z,8.68
2022-11-13T08:59:10.745Z,8.93
2022-11-13T09:01:37.101Z,8.02
2022-11-13T09:04:03.604Z,8.40
2022-11-13T09:06:29.989Z,8.02
2022-11-13T09:08:56.525Z,8.27
2022-11-13T09:11:22.845Z,7.75
2022-11-13T09:13:53.277Z,7.50
2022-11-13T09:16:22.770Z,6.85
